createdAt,value
2022-10-07T00:01:11.605Z,15.50
2022-10-07T00:03:39.809Z,15.50
2022-10-07T00:06:11.790Z,15.50
2022-10-07T00:08:43.579Z,15.50
2022-10-07T00:11:13.418Z,15.60
2022-10-07T00:13:43.657Z,15.50
2022-10-07T00:16:13.953Z,15.50
2022-10-07T00:18:42.537Z,15.50
2022-10-07T00:21:13.814Z,15.30
2022-10-07T00:23:45.473Z,15.30
2022-10-07T00:26:15.706Z,15.40
2022-10-07T00:28:44.332Z,15.40
2022-10-07T00:31:15.632Z,15.40
2022-10-07T00:33:43.996Z,15.40
2022-10-07T00:36:17.717Z,15.40
2022-10-07T00:38:52.363Z,15.30
2022-10-07T00:41:23.928Z,15.30
2022-10-07T00:43:52.340Z,15.30
2022-10-07T00:46:30.358Z,15.10
2022-10-07T00:49:02.512Z,14.60
2022-10-07T00:51:33.404Z,14.50
2022-10-07T00:54:07.666Z,14.80
2022-10-07T00:56:36.317Z,14.90
2022-10-07T00:59:05.660Z,15.00
2022-10-07T01:01:35.068Z,15.10
2022-10-07T01:04:04.576Z,15.10
2022-10-07T01:06:33.060Z,15.10
2022-10-07T01:09:01.291Z,15.10
2022-10-07T01:11:47.011Z,15.10
2022-10-07T01:14:26.479Z,15.10
2022-10-07T01:17:02.201Z,15.10
2022-10-07T01:19:46.027Z,15.00
2022-10-07T01:22:28.206Z,15.00
2022-10-07T01:25:14.958Z,15.00
2022-10-07T01:27:48.643Z,15.00
2022-10-07T01:30:18.263Z,14.90
2022-10-07T01:32:54.123Z,14.90
2022-10-07T01:35:26.343Z,14.90
2022-10-07T01:38:00.704Z,14.80
2022-10-07T01:40:41.182Z,14.90
2022-10-07T01:43:11.253Z,14.80
2022-10-07T01:45:42.326Z,14.80
2022-10-07T01:48:11.313Z,14.80
2022-10-07T01:50:40.324Z,14.80
2022-10-07T01:53:27.827Z,14.70
2022-10-07T01:56:12.674Z,14.70
2022-10-07T01:59:00.845Z,14.80
2022-10-07T02:01:40.297Z,14.80
2022-10-07T02:04:35.300Z,14.80
2022-10-07T02:07:14.776Z,14.70
2022-10-07T02:09:47.539Z,14.80
2022-10-07T02:12:20.534Z,14.80
2022-10-07T02:14:55.343Z,14.80
2022-10-07T02:17:28.096Z,14.80
2022-10-07T02:19:57.869Z,14.80
2022-10-07T02:22:29.467Z,14.70
2022-10-07T02:25:00.128Z,14.70
2022-10-07T02:27:33.899Z,14.10
2022-10-07T02:30:06.713Z,13.60
2022-10-07T02:32:36.498Z,13.60
2022-10-07T02:35:14.089Z,13.70
2022-10-07T02:37:44.780Z,13.50
2022-10-07T02:40:13.255Z,13.70
2022-10-07T02:42:49.018Z,13.90
2022-10-07T02:45:26.613Z,14.10
2022-10-07T02:48:00.947Z,14.30
2022-10-07T02:50:35.531Z,14.40
2022-10-07T02:53:06.185Z,14.50
2022-10-07T02:55:36.093Z,14.60
2022-10-07T02:58:08.164Z,14.60
2022-10-07T03:00:43.701Z,14.60
2022-10-07T03:03:12.298Z,14.60
2022-10-07T03:05:49.324Z,14.50
2022-10-07T03:08:18.727Z,14.60
2022-10-07T03:10:47.884Z,14.60
2022-10-07T03:13:17.351Z,14.60
2022-10-07T03:15:52.282Z,14.50
2022-10-07T03:18:28.507Z,14.50
2022-10-07T03:21:19.599Z,14.50
2022-10-07T03:23:52.363Z,14.50
2022-10-07T03:26:22.329Z,14.50
2022-10-07T03:28:51.419Z,14.50
2022-10-07T03:31:22.211Z,14.50
2022-10-07T03:33:52.854Z,14.50
2022-10-07T03:36:23.177Z,14.50
2022-10-07T03:38:51.687Z,14.50
2022-10-07T03:41:20.847Z,14.60
2022-10-07T03:43:52.113Z,14.60
2022-10-07T03:46:24.815Z,14.50
2022-10-07T03:48:53.464Z,14.50
2022-10-07T03:51:21.807Z,14.50
2022-10-07T03:53:54.552Z,14.50
2022-10-07T03:56:23.156Z,14.50
2022-10-07T03:58:52.680Z,14.50
2022-10-07T04:01:21.149Z,14.50
2022-10-07T04:03:56.067Z,14.50
2022-10-07T04:06:25.697Z,14.50
2022-10-07T04:08:55.962Z,14.50
2022-10-07T04:11:25.063Z,14.20
2022-10-07T04:13:56.370Z,14.40
2022-10-07T04:16:27.339Z,14.40
2022-10-07T04:18:58.615Z,14.40
2022-10-07T04:21:28.672Z,14.40
2022-10-07T04:23:56.831Z,14.40
2022-10-07T04:26:25.000Z,14.40
2022-10-07T04:28:53.134Z,14.40
2022-10-07T04:31:23.988Z,14.40
2022-10-07T04:34:04.367Z,14.40
2022-10-07T04:36:36.757Z,14.30
2022-10-07T04:39:10.498Z,14.30
2022-10-07T04:41:44.043Z,14.30
2022-10-07T04:44:20.480Z,14.30
2022-10-07T04:46:56.840Z,14.30
2022-10-07T04:49:29.107Z,14.30
2022-10-07T04:51:59.748Z,14.30
2022-10-07T04:54:34.379Z,14.30
2022-10-07T04:57:02.862Z,14.30
2022-10-07T04:59:31.780Z,14.30
2022-10-07T05:02:01.194Z,14.30
2022-10-07T05:04:32.028Z,14.20
2022-10-07T05:07:00.191Z,14.30
2022-10-07T05:09:30.131Z,14.30
2022-10-07T05:11:58.403Z,14.30
2022-10-07T05:14:26.615Z,14.30
2022-10-07T05:16:57.359Z,14.30
2022-10-07T05:19:29.564Z,14.40
2022-10-07T05:21:59.185Z,14.20
2022-10-07T05:24:28.070Z,13.90
2022-10-07T05:26:56.828Z,13.90
2022-10-07T05:29:25.089Z,14.10
2022-10-07T05:31:58.734Z,14.20
2022-10-07T05:34:29.563Z,14.30
2022-10-07T05:37:00.481Z,14.30
2022-10-07T05:39:28.653Z,14.30
2022-10-07T05:42:02.712Z,14.40
2022-10-07T05:44:38.019Z,14.30
2022-10-07T05:47:07.514Z,14.30
2022-10-07T05:49:36.639Z,14.30
2022-10-07T05:52:07.877Z,14.30
2022-10-07T05:54:36.804Z,14.30
2022-10-07T05:57:06.597Z,14.30
2022-10-07T05:59:36.005Z,14.30
2022-10-07T06:02:05.364Z,14.30
2022-10-07T06:04:34.463Z,14.20
2022-10-07T06:07:04.228Z,14.20
2022-10-07T06:09:52.305Z,14.20
2022-10-07T06:12:38.468Z,14.20
2022-10-07T06:15:12.017Z,14.20
2022-10-07T06:17:44.784Z,14.10
2022-10-07T06:20:15.312Z,14.10
2022-10-07T06:22:44.859Z,14.10
2022-10-07T06:25:16.820Z,14.00
2022-10-07T06:27:51.114Z,14.10
2022-10-07T06:30:22.098Z,14.00
2022-10-07T06:32:50.330Z,14.00
2022-10-07T06:35:18.507Z,14.00
2022-10-07T06:37:46.886Z,14.00
2022-10-07T06:40:17.413Z,14.00
2022-10-07T06:42:45.702Z,14.10
2022-10-07T06:45:25.012Z,14.00
2022-10-07T06:47:54.780Z,14.00
2022-10-07T06:50:24.219Z,14.00
2022-10-07T06:52:53.182Z,14.00
2022-10-07T06:55:23.151Z,14.00
2022-10-07T06:57:51.443Z,14.00
2022-10-07T07:00:21.426Z,14.10
2022-10-07T07:02:50.684Z,14.10
2022-10-07T07:05:19.276Z,14.10
2022-10-07T07:07:48.920Z,14.10
2022-10-07T07:10:18.073Z,14.20
2022-10-07T07:12:54.075Z,14.20
2022-10-07T07:15:23.114Z,14.30
2022-10-07T07:17:51.407Z,14.30
2022-10-07T07:20:20.655Z,14.10
2022-10-07T07:22:49.507Z,14.20
2022-10-07T07:25:17.884Z,14.30
2022-10-07T07:27:48.781Z,14.10
2022-10-07T07:30:23.138Z,14.10
2022-10-07T07:32:52.889Z,13.80
2022-10-07T07:35:21.151Z,13.70
2022-10-07T07:37:50.466Z,13.70
2022-10-07T07:40:20.444Z,13.90
2022-10-07T07:42:48.821Z,13.90
2022-10-07T07:45:18.129Z,14.00
2022-10-07T07:47:49.566Z,14.10
2022-10-07T07:50:20.877Z,14.20
2022-10-07T07:52:51.900Z,14.00
2022-10-07T07:55:24.445Z,14.00
2022-10-07T07:57:52.730Z,14.10
2022-10-07T08:00:21.090Z,14.00
2022-10-07T08:03:05.468Z,14.00
2022-10-07T08:05:36.036Z,14.00
2022-10-07T08:08:04.910Z,14.10
2022-10-07T08:10:33.285Z,14.10
2022-10-07T08:13:01.481Z,14.10
2022-10-07T08:15:29.743Z,14.30
2022-10-07T08:17:57.978Z,14.50
2022-10-07T08:20:28.317Z,14.40
2022-10-07T08:22:59.028Z,14.50
2022-10-07T08:25:29.535Z,14.60
2022-10-07T08:27:59.149Z,14.40
2022-10-07T08:30:28.103Z,14.60
2022-10-07T08:33:01.026Z,14.60
2022-10-07T08:35:30.918Z,14.70
2022-10-07T08:37:58.960Z,14.90
2022-10-07T08:40:27.149Z,15.10
2022-10-07T08:42:55.275Z,15.30
2022-10-07T08:45:29.498Z,15.20
2022-10-07T08:47:59.674Z,15.00
2022-10-07T08:50:35.219Z,14.90
2022-10-07T08:53:06.917Z,14.90
2022-10-07T08:55:41.039Z,14.90
2022-10-07T08:58:22.288Z,15.00
2022-10-07T09:00:57.613Z,15.20
2022-10-07T09:03:36.063Z,15.30
2022-10-07T09:06:13.897Z,15.30
2022-10-07T09:08:45.826Z,15.30
2022-10-07T09:11:20.423Z,15.20
2022-10-07T09:13:52.277Z,15.20
2022-10-07T09:16:25.947Z,15.30
2022-10-07T09:18:56.967Z,15.50
2022-10-07T09:21:36.828Z,15.70
2022-10-07T09:24:18.752Z,15.70
2022-10-07T09:26:47.120Z,15.70
2022-10-07T09:29:15.650Z,15.60
2022-10-07T09:31:43.848Z,15.70
2022-10-07T09:34:23.392Z,15.70
2022-10-07T09:37:14.876Z,15.80
2022-10-07T09:39:44.706Z,15.80
2022-10-07T09:42:35.979Z,16.10
2022-10-07T09:45:19.111Z,16.10
2022-10-07T09:47:53.440Z,16.10
2022-10-07T09:50:36.527Z,16.10
2022-10-07T09:53:07.964Z,16.30
2022-10-07T09:55:41.762Z,16.30
2022-10-07T09:58:19.691Z,16.30
2022-10-07T10:00:49.997Z,16.30
2022-10-07T10:03:19.098Z,16.40
2022-10-07T10:05:57.545Z,16.50
2022-10-07T10:08:30.600Z,16.60
2022-10-07T10:11:01.412Z,16.70
2022-10-07T10:13:32.595Z,16.70
2022-10-07T10:16:01.835Z,16.80
2022-10-07T10:18:36.704Z,16.90
2022-10-07T10:21:30.045Z,17.00
2022-10-07T10:24:01.151Z,17.20
2022-10-07T10:26:53.902Z,17.50
2022-10-07T10:29:47.489Z,17.90
2022-10-07T10:32:32.232Z,17.40
2022-10-07T10:35:08.055Z,17.70
2022-10-07T10:37:52.034Z,18.10
2022-10-07T10:40:30.572Z,17.90
2022-10-07T10:43:08.915Z,18.00
2022-10-07T10:45:47.191Z,17.70
2022-10-07T10:48:30.053Z,18.10
2022-10-07T10:51:06.743Z,18.50
2022-10-07T10:53:48.207Z,18.80
2022-10-07T10:56:26.336Z,19.10
2022-10-07T10:59:14.819Z,19.20
2022-10-07T11:01:45.763Z,19.00
2022-10-07T11:04:38.505Z,18.90
2022-10-07T11:07:21.364Z,19.30
2022-10-07T11:09:53.067Z,19.50
2022-10-07T11:12:29.569Z,19.80
2022-10-07T11:15:02.194Z,19.30
2022-10-07T11:17:32.978Z,19.40
2022-10-07T11:20:13.938Z,19.70
2022-10-07T11:22:49.231Z,19.40
2022-10-07T11:25:28.903Z,19.20
2022-10-07T11:28:08.389Z,19.10
2022-10-07T11:30:44.395Z,18.90
2022-10-07T11:33:17.435Z,19.30
2022-10-07T11:35:51.652Z,18.90
2022-10-07T11:38:22.985Z,19.30
2022-10-07T11:40:54.951Z,19.00
2022-10-07T11:43:28.629Z,19.00
2022-10-07T11:46:01.582Z,19.30
2022-10-07T11:48:39.864Z,19.80
2022-10-07T11:51:10.838Z,19.90
2022-10-07T11:53:41.111Z,19.90
2022-10-07T11:56:19.292Z,19.90
2022-10-07T11:58:59.460Z,20.30
2022-10-07T12:01:52.614Z,20.30
2022-10-07T12:04:38.209Z,20.60
2022-10-07T12:07:42.190Z,20.80
2022-10-07T12:10:22.247Z,20.20
2022-10-07T12:12:53.930Z,20.50
2022-10-07T12:15:35.851Z,20.10
2022-10-07T12:18:28.703Z,20.40
2022-10-07T12:21:08.552Z,20.40
2022-10-07T12:23:46.415Z,20.40
2022-10-07T12:26:49.764Z,20.40
2022-10-07T12:29:45.115Z,20.60
2022-10-07T12:32:46.869Z,20.00
2022-10-07T12:35:44.246Z,19.90
2022-10-07T12:38:16.761Z,20.10
2022-10-07T12:40:51.193Z,20.20
2022-10-07T12:43:34.504Z,20.30
2022-10-07T12:46:05.763Z,19.90
2022-10-07T12:48:43.342Z,19.70
2022-10-07T12:51:19.342Z,19.70
2022-10-07T12:53:49.603Z,19.80
2022-10-07T12:56:23.678Z,19.90
2022-10-07T12:59:33.355Z,20.00
2022-10-07T13:02:36.398Z,20.20
2022-10-07T13:05:41.207Z,20.20
2022-10-07T13:08:44.810Z,20.40
2022-10-07T13:11:48.868Z,20.60
2022-10-07T13:14:21.758Z,20.90
2022-10-07T13:16:55.213Z,20.80
2022-10-07T13:19:31.835Z,20.60
2022-10-07T13:22:09.932Z,20.60
2022-10-07T13:24:42.003Z,20.60
2022-10-07T13:27:12.040Z,20.50
2022-10-07T13:29:40.458Z,20.70
2022-10-07T13:32:16.127Z,20.80
2022-10-07T13:34:46.219Z,20.90
2022-10-07T13:37:29.027Z,21.20
2022-10-07T13:39:58.290Z,21.40
2022-10-07T13:42:30.150Z,21.50
2022-10-07T13:45:03.433Z,21.50
2022-10-07T13:47:36.578Z,21.50
2022-10-07T13:50:05.478Z,21.60
2022-10-07T13:52:37.135Z,21.70
2022-10-07T13:55:20.986Z,21.50
2022-10-07T13:57:49.547Z,21.00
2022-10-07T14:00:18.455Z,20.80
2022-10-07T14:02:47.853Z,20.80
2022-10-07T14:05:21.126Z,20.90
2022-10-07T14:07:54.648Z,20.80
2022-10-07T14:10:24.344Z,20.60
2022-10-07T14:12:58.030Z,20.80
2022-10-07T14:15:29.050Z,21.00
2022-10-07T14:18:00.262Z,21.10
2022-10-07T14:20:32.551Z,20.80
2022-10-07T14:23:05.813Z,20.60
2022-10-07T14:25:53.103Z,20.60
2022-10-07T14:28:28.697Z,20.60
2022-10-07T14:31:45.265Z,20.70
2022-10-07T14:34:33.156Z,21.10
2022-10-07T14:37:02.622Z,21.30
2022-10-07T14:39:36.300Z,21.50
2022-10-07T14:42:04.518Z,21.10
2022-10-07T14:44:32.896Z,21.20
2022-10-07T14:47:05.997Z,21.00
2022-10-07T14:49:34.345Z,20.80
2022-10-07T14:52:03.806Z,20.90
2022-10-07T14:54:34.472Z,21.20
2022-10-07T14:57:02.614Z,21.50
2022-10-07T14:59:30.742Z,21.40
2022-10-07T15:01:59.006Z,21.20
2022-10-07T15:04:27.194Z,21.00
2022-10-07T15:06:55.780Z,20.70
2022-10-07T15:09:23.857Z,20.70
2022-10-07T15:11:53.442Z,20.90
2022-10-07T15:14:21.575Z,21.20
2022-10-07T15:16:50.547Z,21.40
2022-10-07T15:19:19.200Z,21.60
2022-10-07T15:21:47.300Z,21.40
2022-10-07T15:24:15.432Z,21.50
2022-10-07T15:26:43.519Z,21.40
2022-10-07T15:29:14.789Z,21.10
2022-10-07T15:31:44.020Z,20.70
2022-10-07T15:34:13.874Z,20.80
2022-10-07T15:36:42.264Z,20.90
2022-10-07T15:39:11.373Z,21.10
2022-10-07T15:41:41.447Z,21.00
2022-10-07T15:44:16.930Z,20.70
2022-10-07T15:46:45.852Z,20.60
2022-10-07T15:49:14.462Z,20.40
2022-10-07T15:51:42.583Z,20.30
2022-10-07T15:54:11.720Z,20.30
2022-10-07T15:56:40.443Z,20.30
2022-10-07T15:59:08.746Z,20.40
2022-10-07T16:01:38.696Z,20.40
2022-10-07T16:04:07.104Z,20.50
2022-10-07T16:06:36.997Z,20.50
2022-10-07T16:09:06.537Z,20.80
2022-10-07T16:11:35.782Z,20.90
2022-10-07T16:14:04.968Z,21.10
2022-10-07T16:16:33.456Z,20.90
2022-10-07T16:19:03.658Z,20.40
2022-10-07T16:21:33.466Z,20.10
2022-10-07T16:24:05.091Z,19.90
2022-10-07T16:26:34.402Z,19.80
2022-10-07T16:29:21.338Z,19.80
2022-10-07T16:31:52.529Z,20.00
2022-10-07T16:34:25.679Z,20.30
2022-10-07T16:36:53.876Z,20.60
2022-10-07T16:39:22.606Z,20.80
2022-10-07T16:41:52.329Z,20.90
2022-10-07T16:44:21.427Z,20.90
2022-10-07T16:46:50.367Z,21.00
2022-10-07T16:49:19.260Z,21.00
2022-10-07T16:51:48.852Z,20.90
2022-10-07T16:54:18.398Z,20.90
2022-10-07T16:56:48.517Z,20.80
2022-10-07T16:59:22.540Z,20.80
2022-10-07T17:01:54.698Z,20.70
2022-10-07T17:04:24.426Z,20.60
2022-10-07T17:06:54.411Z,20.60
2022-10-07T17:09:25.011Z,20.60
2022-10-07T17:11:53.767Z,20.50
2022-10-07T17:14:23.922Z,20.50
2022-10-07T17:16:56.833Z,20.40
2022-10-07T17:19:27.176Z,20.30
2022-10-07T17:21:58.537Z,20.30
2022-10-07T17:24:26.890Z,20.30
2022-10-07T17:26:56.374Z,20.20
2022-10-07T17:29:26.340Z,19.40
2022-10-07T17:31:55.031Z,19.10
2022-10-07T17:34:23.850Z,19.40
2022-10-07T17:36:52.691Z,19.50
2022-10-07T17:39:22.492Z,19.60
2022-10-07T17:41:50.684Z,19.70
2022-10-07T17:44:19.744Z,19.70
2022-10-07T17:46:48.938Z,19.70
2022-10-07T17:49:17.320Z,19.60
2022-10-07T17:51:45.533Z,19.60
2022-10-07T17:54:15.026Z,19.60
2022-10-07T17:56:46.065Z,19.60
2022-10-07T17:59:14.489Z,19.50
2022-10-07T18:01:43.366Z,19.50
2022-10-07T18:04:14.881Z,19.50
2022-10-07T18:06:43.933Z,19.40
2022-10-07T18:09:18.148Z,19.50
2022-10-07T18:12:05.517Z,19.40
2022-10-07T18:14:53.755Z,19.40
2022-10-07T18:17:22.922Z,19.40
2022-10-07T18:19:51.136Z,19.30
2022-10-07T18:22:19.407Z,19.30
2022-10-07T18:24:47.512Z,19.20
2022-10-07T18:27:17.184Z,19.20
2022-10-07T18:29:45.824Z,19.20
2022-10-07T18:32:13.926Z,19.20
2022-10-07T18:34:42.112Z,19.20
2022-10-07T18:37:10.181Z,19.10
2022-10-07T18:39:38.887Z,19.10
2022-10-07T18:42:07.485Z,19.10
2022-10-07T18:44:37.059Z,19.00
2022-10-07T18:47:05.428Z,19.00
2022-10-07T18:49:33.520Z,19.00
2022-10-07T18:52:02.147Z,18.90
2022-10-07T18:54:30.290Z,18.90
2022-10-07T18:56:58.386Z,18.90
2022-10-07T18:59:26.583Z,18.80
2022-10-07T19:01:56.251Z,18.70
2022-10-07T19:04:24.860Z,18.60
2022-10-07T19:06:52.958Z,18.60
2022-10-07T19:09:22.823Z,18.50
2022-10-07T19:11:51.340Z,18.50
2022-10-07T19:14:19.258Z,18.40
2022-10-07T19:16:50.128Z,18.40
2022-10-07T19:19:21.255Z,18.40
2022-10-07T19:21:51.496Z,18.30
2022-10-07T19:24:41.255Z,18.30
2022-10-07T19:27:09.402Z,18.30
2022-10-07T19:29:37.546Z,18.30
2022-10-07T19:32:08.536Z,18.30
2022-10-07T19:34:38.763Z,18.20
2022-10-07T19:37:07.004Z,18.20
2022-10-07T19:39:35.395Z,18.20
2022-10-07T19:42:04.434Z,18.20
2022-10-07T19:44:33.628Z,18.20
2022-10-07T19:47:03.081Z,18.10
2022-10-07T19:49:31.278Z,18.10
2022-10-07T19:52:00.875Z,18.10
2022-10-07T19:54:30.445Z,18.00
2022-10-07T19:56:58.580Z,18.00
2022-10-07T19:59:26.911Z,18.00
2022-10-07T20:02:00.216Z,18.00
2022-10-07T20:04:29.254Z,18.00
2022-10-07T20:06:59.196Z,18.00
2022-10-07T20:09:28.679Z,17.90
2022-10-07T20:11:57.099Z,17.90
2022-10-07T20:14:25.380Z,17.90
2022-10-07T20:16:56.284Z,17.90
2022-10-07T20:19:25.213Z,17.80
2022-10-07T20:21:53.497Z,17.80
2022-10-07T20:24:21.640Z,17.80
2022-10-07T20:26:51.194Z,17.80
2022-10-07T20:29:24.089Z,17.80
2022-10-07T20:31:53.887Z,17.80
2022-10-07T20:34:22.483Z,17.80
2022-10-07T20:36:50.937Z,17.80
2022-10-07T20:39:38.740Z,17.70
2022-10-07T20:42:24.867Z,17.70
2022-10-07T20:44:54.155Z,17.70
2022-10-07T20:47:24.173Z,17.70
2022-10-07T20:49:52.408Z,17.70
2022-10-07T20:52:22.887Z,17.70
2022-10-07T20:54:51.899Z,17.70
2022-10-07T20:57:23.001Z,17.70
2022-10-07T20:59:51.828Z,17.60
2022-10-07T21:02:22.669Z,17.60
2022-10-07T21:04:50.975Z,17.60
2022-10-07T21:07:20.382Z,17.60
2022-10-07T21:09:48.981Z,17.50
2022-10-07T21:12:18.342Z,17.50
2022-10-07T21:14:48.596Z,17.50
2022-10-07T21:17:16.852Z,17.40
2022-10-07T21:19:45.000Z,17.40
2022-10-07T21:22:13.359Z,17.40
2022-10-07T21:24:41.729Z,17.30
2022-10-07T21:27:10.045Z,17.30
2022-10-07T21:29:40.938Z,17.30
2022-10-07T21:32:11.775Z,17.30
2022-10-07T21:34:40.268Z,17.30
2022-10-07T21:37:08.514Z,17.30
2022-10-07T21:39:38.201Z,17.30
2022-10-07T21:42:06.576Z,17.30
2022-10-07T21:44:35.610Z,17.30
2022-10-07T21:47:05.211Z,17.30
2022-10-07T21:49:35.137Z,17.30
2022-10-07T21:52:03.318Z,17.30
2022-10-07T21:54:31.495Z,17.20
2022-10-07T21:57:00.093Z,17.30
2022-10-07T21:59:28.407Z,17.30
2022-10-07T22:01:56.874Z,17.20
2022-10-07T22:04:25.172Z,17.20
2022-10-07T22:07:11.938Z,17.10
2022-10-07T22:09:40.248Z,17.00
2022-10-07T22:12:08.908Z,17.00
2022-10-07T22:14:37.104Z,17.10
2022-10-07T22:17:05.335Z,17.00
2022-10-07T22:19:33.608Z,16.90
2022-10-07T22:22:03.346Z,16.80
2022-10-07T22:24:32.039Z,16.80
2022-10-07T22:27:00.598Z,16.90
2022-10-07T22:29:29.823Z,16.90
2022-10-07T22:31:58.462Z,16.90
2022-10-07T22:34:43.963Z,16.90
2022-10-07T22:37:13.849Z,16.80
2022-10-07T22:39:42.322Z,16.80
2022-10-07T22:42:10.605Z,16.80
2022-10-07T22:44:38.794Z,16.80
2022-10-07T22:47:07.016Z,16.70
2022-10-07T22:49:35.143Z,16.70
2022-10-07T22:52:03.675Z,16.50
2022-10-07T22:54:33.388Z,16.00
2022-10-07T22:57:01.535Z,16.10
2022-10-07T22:59:29.596Z,16.30
2022-10-07T23:01:57.855Z,16.30
2022-10-07T23:04:26.395Z,16.40
2022-10-07T23:06:54.595Z,16.40
2022-10-07T23:09:22.751Z,16.30
2022-10-07T23:11:52.276Z,16.30
2022-10-07T23:14:20.585Z,16.30
2022-10-07T23:16:48.936Z,16.30
2022-10-07T23:19:17.195Z,16.30
2022-10-07T23:21:45.707Z,16.30
2022-10-07T23:24:14.062Z,16.30
2022-10-07T23:26:43.757Z,16.40
2022-10-07T23:29:14.115Z,16.30
2022-10-07T23:31:42.300Z,16.20
2022-10-07T23:34:12.520Z,16.00
2022-10-07T23:36:41.327Z,16.10
2022-10-07T23:39:10.178Z,16.30
2022-10-07T23:41:38.473Z,16.40
2022-10-07T23:44:06.976Z,16.50
2022-10-07T23:46:36.793Z,16.50
2022-10-07T23:49:05.638Z,16.50
2022-10-07T23:51:34.822Z,16.40
2022-10-07T23:54:04.728Z,16.40
2022-10-07T23:56:33.848Z,16.40
2022-10-07T23:59:03.940Z,16.40
